createdAt,value
2023-03-26T00:01:13.917Z,100722.16
2023-03-26T00:03:41.016Z,100719.47
2023-03-26T00:06:10.546Z,100722.94
2023-03-26T00:08:38.538Z,100725.47
2023-03-26T00:11:06.588Z,100723.59
2023-03-26T00:13:33.197Z,100724.44
2023-03-26T00:16:01.208Z,100722.94
2023-03-26T00:18:31.527Z,100715.16
2023-03-26T00:20:59.338Z,100714.28
2023-03-26T00:23:28.221Z,100716.03
2023-03-26T00:25:56.118Z,100716.88
2023-03-26T00:28:23.644Z,100714.97
2023-03-26T00:30:56.744Z,100708.13
2023-03-26T00:33:23.463Z,100712.25
2023-03-26T00:35:54.404Z,100713.00
2023-03-26T00:38:24.836Z,100701.66
2023-03-26T00:40:52.298Z,100700.81
2023-03-26T00:43:20.435Z,100700.09
2023-03-26T00:45:51.502Z,100692.50
2023-03-26T00:48:18.584Z,100686.59
2023-03-26T00:50:46.725Z,100685.06
2023-03-26T00:53:14.826Z,100683.50
2023-03-26T00:55:42.308Z,100677.47
2023-03-26T00:58:12.193Z,100674.88
2023-03-26T01:00:46.369Z,100668.09
2023-03-26T01:03:26.953Z,100675.97
2023-03-26T01:06:02.605Z,100679.50
2023-03-26T01:08:33.262Z,100671.00
2023-03-26T01:11:07.415Z,100675.38
2023-03-26T01:13:39.838Z,100668.59
2023-03-26T01:16:20.106Z,100664.44
2023-03-26T01:18:48.617Z,100657.66
2023-03-26T01:21:22.564Z,100656.81
2023-03-26T01:23:57.290Z,100650.97
2023-03-26T01:26:41.089Z,100641.69
2023-03-26T01:29:19.432Z,100635.00
2023-03-26T01:32:00.890Z,100627.34
2023-03-26T01:34:49.658Z,100625.56
2023-03-26T01:37:32.568Z,100636.06
2023-03-26T01:40:06.961Z,100626.50
2023-03-26T01:42:43.569Z,100622.94
2023-03-26T01:45:15.624Z,100617.63
2023-03-26T01:47:43.931Z,100612.44
2023-03-26T01:50:10.465Z,100615.94
2023-03-26T01:52:37.393Z,100608.22
2023-03-26T01:55:04.663Z,100600.56
2023-03-26T01:58:13.393Z,100609.84
2023-03-26T02:00:55.073Z,100593.81
2023-03-26T02:03:30.266Z,100589.66
2023-03-26T02:05:57.813Z,100594.91
2023-03-26T02:08:35.273Z,100584.69
2023-03-26T02:11:11.746Z,100577.66
2023-03-26T02:13:44.970Z,100575.06
2023-03-26T02:16:14.353Z,100571.91
2023-03-26T02:18:41.863Z,100572.00
2023-03-26T02:21:19.969Z,100570.28
2023-03-26T02:23:57.715Z,100571.91
2023-03-26T02:26:25.182Z,100566.88
2023-03-26T02:28:51.656Z,100556.56
2023-03-26T02:31:19.385Z,100556.47
2023-03-26T02:33:47.525Z,100564.13
2023-03-26T02:36:14.304Z,100559.69
2023-03-26T02:38:41.642Z,100556.25
2023-03-26T02:41:08.131Z,100548.44
2023-03-26T02:43:34.526Z,100551.09
2023-03-26T02:46:01.192Z,100547.72
2023-03-26T02:48:27.650Z,100544.56
2023-03-26T02:50:56.936Z,100544.56
2023-03-26T02:53:29.567Z,100544.41
2023-03-26T02:55:57.679Z,100540.78
2023-03-26T02:58:26.383Z,100542.41
2023-03-26T03:00:56.909Z,100546.69
2023-03-26T03:03:27.983Z,100540.47
2023-03-26T03:05:55.173Z,100533.41
2023-03-26T03:08:23.913Z,100534.94
2023-03-26T03:11:23.515Z,100540.66
2023-03-26T03:13:50.656Z,100533.59
2023-03-26T03:16:17.391Z,100526.47
2023-03-26T03:18:44.299Z,100529.81
2023-03-26T03:21:10.902Z,100527.81
2023-03-26T03:23:37.374Z,100519.66
2023-03-26T03:26:04.062Z,100518.44
2023-03-26T03:28:30.559Z,100513.81
2023-03-26T03:30:57.614Z,100507.66
2023-03-26T03:33:24.114Z,100504.25
2023-03-26T03:35:51.060Z,100506.72
2023-03-26T03:38:18.002Z,100507.47
2023-03-26T03:40:45.098Z,100510.06
2023-03-26T03:43:11.552Z,100507.47
2023-03-26T03:45:37.970Z,100501.31
2023-03-26T03:48:04.713Z,100501.31
2023-03-26T03:50:33.106Z,100505.50
2023-03-26T03:53:01.560Z,100507.88
2023-03-26T03:55:28.046Z,100501.88
2023-03-26T03:57:54.733Z,100502.75
2023-03-26T04:00:22.621Z,100500.16
2023-03-26T04:02:49.162Z,100500.94
2023-03-26T04:05:15.642Z,100500.94
2023-03-26T04:07:42.154Z,100494.16
2023-03-26T04:10:09.803Z,100493.31
2023-03-26T04:12:36.261Z,100484.50
2023-03-26T04:15:03.586Z,100471.31
2023-03-26T04:17:30.583Z,100478.88
2023-03-26T04:19:57.364Z,100471.78
2023-03-26T04:22:26.119Z,100466.53
2023-03-26T04:24:54.347Z,100459.81
2023-03-26T04:27:28.213Z,100457.22
2023-03-26T04:29:54.983Z,100459.88
2023-03-26T04:32:29.634Z,100460.66
2023-03-26T04:35:00.266Z,100453.88
2023-03-26T04:37:34.479Z,100457.28
2023-03-26T04:40:06.302Z,100440.97
2023-03-26T04:42:33.345Z,100434.91
2023-03-26T04:44:59.838Z,100437.25
2023-03-26T04:47:26.230Z,100430.16
2023-03-26T04:49:52.692Z,100426.66
2023-03-26T04:52:19.199Z,100424.91
2023-03-26T04:54:46.047Z,100415.47
2023-03-26T04:57:29.513Z,100422.31
2023-03-26T04:59:56.289Z,100408.75
2023-03-26T05:02:22.993Z,100411.56
2023-03-26T05:04:50.013Z,100403.09
2023-03-26T05:07:25.070Z,100403.84
2023-03-26T05:09:51.443Z,100396.97
2023-03-26T05:12:17.910Z,100395.16
2023-03-26T05:14:44.378Z,100394.47
2023-03-26T05:17:14.898Z,100393.47
2023-03-26T05:19:41.705Z,100392.94
2023-03-26T05:22:08.193Z,100391.94
2023-03-26T05:24:34.616Z,100391.72
2023-03-26T05:27:01.229Z,100387.38
2023-03-26T05:29:27.834Z,100382.13
2023-03-26T05:31:54.293Z,100372.44
2023-03-26T05:34:24.030Z,100379.38
2023-03-26T05:36:50.596Z,100372.69
2023-03-26T05:39:17.088Z,100375.19
2023-03-26T05:41:44.079Z,100367.16
2023-03-26T05:44:10.723Z,100359.50
2023-03-26T05:46:37.309Z,100362.22
2023-03-26T05:49:03.728Z,100355.38
2023-03-26T05:51:30.279Z,100355.44
2023-03-26T05:53:56.774Z,100354.59
2023-03-26T05:56:23.223Z,100351.25
2023-03-26T05:58:51.488Z,100351.47
2023-03-26T06:01:19.531Z,100341.09
2023-03-26T06:03:47.028Z,100346.97
2023-03-26T06:06:17.435Z,100343.53
2023-03-26T06:09:01.395Z,100337.34
2023-03-26T06:11:29.305Z,100328.63
2023-03-26T06:13:55.784Z,100326.78
2023-03-26T06:16:26.330Z,100326.56
2023-03-26T06:18:56.685Z,100317.84
2023-03-26T06:21:28.106Z,100313.34
2023-03-26T06:23:55.288Z,100319.41
2023-03-26T06:26:22.267Z,100316.81
2023-03-26T06:28:48.844Z,100315.06
2023-03-26T06:31:17.200Z,100308.78
2023-03-26T06:33:43.695Z,100308.56
2023-03-26T06:36:10.529Z,100311.09
2023-03-26T06:38:37.012Z,100303.94
2023-03-26T06:41:04.809Z,100315.13
2023-03-26T06:43:33.617Z,100303.94
2023-03-26T06:46:01.413Z,100306.34
2023-03-26T06:48:27.934Z,100298.50
2023-03-26T06:50:55.267Z,100304.53
2023-03-26T06:53:21.829Z,100306.28
2023-03-26T06:55:48.293Z,100304.59
2023-03-26T06:58:14.714Z,100302.75
2023-03-26T07:00:42.319Z,100306.94
2023-03-26T07:03:09.846Z,100306.28
2023-03-26T07:05:36.213Z,100308.00
2023-03-26T07:08:03.110Z,100307.94
2023-03-26T07:10:29.695Z,100297.75
2023-03-26T07:12:56.092Z,100302.75
2023-03-26T07:15:22.608Z,100294.84
2023-03-26T07:17:49.091Z,100302.38
2023-03-26T07:20:15.827Z,100303.13
2023-03-26T07:22:42.747Z,100296.19
2023-03-26T07:25:10.129Z,100292.59
2023-03-26T07:28:00.678Z,100306.41
2023-03-26T07:30:31.757Z,100301.06
2023-03-26T07:33:09.142Z,100301.66
2023-03-26T07:35:56.047Z,100298.09
2023-03-26T07:38:22.349Z,100293.03
2023-03-26T07:41:07.305Z,100294.63
2023-03-26T07:43:51.021Z,100298.75
2023-03-26T07:46:20.586Z,100298.84
2023-03-26T07:48:51.821Z,100297.75
2023-03-26T07:51:18.743Z,100290.72
2023-03-26T07:53:45.718Z,100294.94
2023-03-26T07:56:31.034Z,100297.34
2023-03-26T07:59:14.045Z,100290.38
2023-03-26T08:02:11.659Z,100288.72
2023-03-26T08:05:19.608Z,100293.84
2023-03-26T08:07:50.733Z,100284.28
2023-03-26T08:10:26.075Z,100280.69
2023-03-26T08:13:00.032Z,100281.28
2023-03-26T08:15:40.778Z,100286.66
2023-03-26T08:18:27.316Z,100286.06
2023-03-26T08:21:00.795Z,100282.78
2023-03-26T08:24:18.468Z,100281.94
2023-03-26T08:26:45.375Z,100284.19
2023-03-26T08:29:26.593Z,100276.22
2023-03-26T08:31:54.821Z,100281.41
2023-03-26T08:34:21.225Z,100278.75
2023-03-26T08:36:47.703Z,100281.25
2023-03-26T08:39:14.206Z,100277.59
2023-03-26T08:42:12.932Z,100282.53
2023-03-26T08:45:06.548Z,100276.75
2023-03-26T08:48:10.507Z,100276.41
2023-03-26T08:50:47.077Z,100278.81
2023-03-26T08:53:35.590Z,100285.00
2023-03-26T08:56:26.507Z,100284.19
2023-03-26T08:59:12.941Z,100279.00
2023-03-26T09:02:22.782Z,100281.91
2023-03-26T09:04:57.586Z,100282.31
2023-03-26T09:07:47.147Z,100284.22
2023-03-26T09:10:33.152Z,100280.09
2023-03-26T09:13:36.924Z,100282.78
2023-03-26T09:16:26.343Z,100290.88
2023-03-26T09:18:53.565Z,100283.31
2023-03-26T09:21:37.897Z,100287.50
2023-03-26T09:24:38.503Z,100281.81
2023-03-26T09:27:20.839Z,100278.63
2023-03-26T09:30:12.154Z,100284.56
2023-03-26T09:33:11.545Z,100284.47
2023-03-26T09:35:46.797Z,100284.63
2023-03-26T09:38:44.815Z,100284.41
2023-03-26T09:41:22.685Z,100281.03
2023-03-26T09:44:14.063Z,100289.66
2023-03-26T09:47:04.534Z,100289.66
2023-03-26T09:49:54.372Z,100290.34
2023-03-26T09:52:45.927Z,100289.56
2023-03-26T09:55:43.639Z,100291.88
2023-03-26T09:58:32.060Z,100293.63
2023-03-26T10:01:22.201Z,100300.88
2023-03-26T10:04:01.798Z,100295.00
2023-03-26T10:06:31.276Z,100312.53
2023-03-26T10:09:19.512Z,100310.91
2023-03-26T10:12:07.725Z,100318.00
2023-03-26T10:14:47.598Z,100316.47
2023-03-26T10:17:25.506Z,100307.94
2023-03-26T10:19:58.955Z,100319.91
2023-03-26T10:23:12.989Z,100310.22
2023-03-26T10:26:04.331Z,100316.63
2023-03-26T10:29:04.848Z,100313.72
2023-03-26T10:31:51.559Z,100325.03
2023-03-26T10:34:54.545Z,100323.19
2023-03-26T10:37:39.975Z,100326.09
2023-03-26T10:40:19.183Z,100322.50
2023-03-26T10:43:22.966Z,100327.53
2023-03-26T10:46:02.596Z,100321.50
2023-03-26T10:49:04.259Z,100328.91
2023-03-26T10:51:30.681Z,100329.03
2023-03-26T10:54:10.960Z,100328.22
2023-03-26T10:56:45.777Z,100338.59
2023-03-26T10:59:14.408Z,100330.59
2023-03-26T11:01:53.016Z,100348.94
2023-03-26T11:04:47.338Z,100344.94
2023-03-26T11:07:35.774Z,100350.41
2023-03-26T11:10:23.983Z,100350.78
2023-03-26T11:13:38.853Z,100341.72
2023-03-26T11:16:09.620Z,100342.53
2023-03-26T11:19:15.863Z,100348.25
2023-03-26T11:21:45.348Z,100351.00
2023-03-26T11:24:41.382Z,100354.59
2023-03-26T11:27:23.738Z,100366.78
2023-03-26T11:30:14.094Z,100367.63
2023-03-26T11:32:51.837Z,100363.81
2023-03-26T11:35:39.538Z,100367.69
2023-03-26T11:38:19.857Z,100376.03
2023-03-26T11:40:50.940Z,100376.09
2023-03-26T11:43:24.234Z,100375.03
2023-03-26T11:45:51.774Z,100374.06
2023-03-26T11:48:31.874Z,100378.69
2023-03-26T11:51:10.729Z,100378.81
2023-03-26T11:53:46.499Z,100384.00
2023-03-26T11:56:26.969Z,100386.75
2023-03-26T11:59:09.957Z,100384.31
2023-03-26T12:02:14.818Z,100387.59
2023-03-26T12:04:43.903Z,100390.94
2023-03-26T12:07:17.417Z,100385.84
2023-03-26T12:09:57.453Z,100389.66
2023-03-26T12:12:46.977Z,100391.25
2023-03-26T12:15:19.758Z,100393.47
2023-03-26T12:17:48.071Z,100388.03
2023-03-26T12:20:26.821Z,100387.88
2023-03-26T12:22:59.138Z,100396.19
2023-03-26T12:25:30.824Z,100396.66
2023-03-26T12:28:04.892Z,100392.34
2023-03-26T12:30:35.488Z,100395.53
2023-03-26T12:33:05.414Z,100396.75
2023-03-26T12:35:34.734Z,100403.16
2023-03-26T12:38:24.753Z,100408.63
2023-03-26T12:42:52.656Z,100413.56
2023-03-26T12:44:55.536Z,100407.16
2023-03-26T12:47:57.876Z,100408.34
2023-03-26T12:49:33.681Z,100415.88
2023-03-26T12:52:18.753Z,100422.50
2023-03-26T12:55:03.142Z,100420.84
2023-03-26T12:57:52.485Z,100425.34
2023-03-26T13:00:40.864Z,100434.41
2023-03-26T13:03:37.806Z,100434.28
2023-03-26T13:06:30.888Z,100431.69
2023-03-26T13:09:19.552Z,100435.78
2023-03-26T13:12:01.475Z,100433.66
2023-03-26T13:14:56.307Z,100442.84
2023-03-26T13:17:39.951Z,100433.84
2023-03-26T13:20:33.007Z,100430.41
2023-03-26T13:23:20.690Z,100447.34
2023-03-26T13:26:23.425Z,100438.63
2023-03-26T13:29:25.845Z,100450.03
2023-03-26T13:32:22.602Z,100452.78
2023-03-26T13:34:58.234Z,100454.94
2023-03-26T13:37:36.825Z,100460.50
2023-03-26T13:40:22.250Z,100464.88
2023-03-26T13:43:10.324Z,100461.44
2023-03-26T13:45:47.410Z,100463.19
2023-03-26T13:48:19.149Z,100459.69
2023-03-26T13:50:57.112Z,100457.91
2023-03-26T13:53:41.871Z,100469.91
2023-03-26T13:56:12.635Z,100473.56
2023-03-26T13:58:47.418Z,100470.97
2023-03-26T14:01:18.814Z,100474.34
2023-03-26T14:04:00.336Z,100473.88
2023-03-26T14:07:00.205Z,100476.38
2023-03-26T14:09:31.948Z,100481.81
2023-03-26T14:12:21.155Z,100489.84
2023-03-26T14:14:57.852Z,100493.50
2023-03-26T14:17:30.917Z,100497.16
2023-03-26T14:20:09.446Z,100502.81
2023-03-26T14:22:42.221Z,100505.50
2023-03-26T14:25:46.983Z,100502.97
2023-03-26T14:28:29.559Z,100510.09
2023-03-26T14:31:11.237Z,100523.59
2023-03-26T14:33:49.902Z,100524.66
2023-03-26T14:36:29.467Z,100520.34
2023-03-26T14:39:31.850Z,100522.94
2023-03-26T14:42:11.985Z,100534.56
2023-03-26T14:44:57.012Z,100538.91
2023-03-26T14:47:27.008Z,100546.53
2023-03-26T14:50:21.461Z,100550.88
2023-03-26T14:53:01.448Z,100543.81
2023-03-26T14:55:49.578Z,100560.97
2023-03-26T14:58:37.601Z,100564.75
2023-03-26T15:01:26.826Z,100569.41
2023-03-26T15:04:38.370Z,100575.56
2023-03-26T15:07:38.484Z,100580.22
2023-03-26T15:10:42.456Z,100583.94
2023-03-26T15:13:44.581Z,100594.84
2023-03-26T15:16:28.020Z,100595.19
2023-03-26T15:19:13.557Z,100594.41
2023-03-26T15:22:10.051Z,100597.84
2023-03-26T15:25:01.294Z,100596.84
2023-03-26T15:28:08.155Z,100606.00
2023-03-26T15:30:53.465Z,100607.53
2023-03-26T15:33:44.955Z,100611.28
2023-03-26T15:36:34.417Z,100621.00
2023-03-26T15:39:23.347Z,100616.97
2023-03-26T15:42:22.115Z,100625.91
2023-03-26T15:45:24.458Z,100633.00
2023-03-26T15:48:12.635Z,100637.44
2023-03-26T15:50:45.566Z,100645.34
2023-03-26T15:53:39.363Z,100660.28
2023-03-26T15:56:34.237Z,100662.28
2023-03-26T15:59:39.961Z,100670.97
2023-03-26T16:02:07.422Z,100685.13
2023-03-26T16:04:51.500Z,100690.34
2023-03-26T16:07:47.226Z,100689.84
2023-03-26T16:10:35.707Z,100693.84
2023-03-26T16:13:17.418Z,100705.06
2023-03-26T16:15:55.857Z,100715.75
2023-03-26T16:18:27.783Z,100715.28
2023-03-26T16:21:04.318Z,100704.91
2023-03-26T16:23:47.582Z,100710.00
2023-03-26T16:26:51.662Z,100721.81
2023-03-26T16:29:19.470Z,100729.59
2023-03-26T16:32:07.291Z,100726.81
2023-03-26T16:34:57.308Z,100731.66
2023-03-26T16:37:36.173Z,100736.97
2023-03-26T16:40:18.463Z,100751.59
2023-03-26T16:43:22.063Z,100755.06
2023-03-26T16:46:03.744Z,100765.47
2023-03-26T16:48:50.418Z,100768.69
2023-03-26T16:51:33.070Z,100777.03
2023-03-26T16:54:04.226Z,100778.25
2023-03-26T16:56:42.124Z,100782.69
2023-03-26T16:59:38.863Z,100790.59
2023-03-26T17:02:31.197Z,100797.38
2023-03-26T17:05:25.824Z,100814.53
2023-03-26T17:07:58.005Z,100817.38
2023-03-26T17:10:33.407Z,100820.25
2023-03-26T17:13:16.720Z,100829.09
2023-03-26T17:16:14.789Z,100817.16
2023-03-26T17:19:03.721Z,100838.00
2023-03-26T17:21:49.859Z,100848.66
2023-03-26T17:24:29.405Z,100848.97
2023-03-26T17:27:18.020Z,100855.84
2023-03-26T17:29:59.552Z,100868.69
2023-03-26T17:32:54.350Z,100864.50
2023-03-26T17:35:41.082Z,100871.47
2023-03-26T17:38:16.563Z,100878.44
2023-03-26T17:40:48.968Z,100892.28
2023-03-26T17:43:51.189Z,100897.44
2023-03-26T17:46:26.856Z,100902.59
2023-03-26T17:49:11.328Z,100902.63
2023-03-26T17:51:50.302Z,100912.44
2023-03-26T17:54:30.535Z,100907.34
2023-03-26T17:57:03.065Z,100918.75
2023-03-26T17:59:31.851Z,100912.94
2023-03-26T18:02:05.391Z,100930.16
2023-03-26T18:04:34.889Z,100938.97
2023-03-26T18:07:49.449Z,100938.06
2023-03-26T18:10:48.163Z,100950.25
2023-03-26T18:13:38.990Z,100954.78
2023-03-26T18:16:14.468Z,100956.78
2023-03-26T18:18:53.364Z,100965.47
2023-03-26T18:21:43.922Z,100961.44
2023-03-26T18:24:17.357Z,100957.94
2023-03-26T18:26:46.809Z,100971.03
2023-03-26T18:29:22.332Z,100980.53
2023-03-26T18:31:54.862Z,100995.94
2023-03-26T18:34:21.868Z,100991.59
2023-03-26T18:37:15.273Z,100995.78
2023-03-26T18:39:57.202Z,101006.13
2023-03-26T18:42:24.976Z,101014.75
2023-03-26T18:44:52.848Z,101023.34
2023-03-26T18:47:20.445Z,101031.06
2023-03-26T18:49:49.821Z,101033.56
2023-03-26T18:52:19.087Z,101037.00
2023-03-26T18:54:52.426Z,101050.06
2023-03-26T18:57:25.786Z,101055.34
2023-03-26T18:59:54.648Z,101061.53
2023-03-26T19:02:22.077Z,101071.88
2023-03-26T19:04:50.866Z,101071.31
2023-03-26T19:07:25.081Z,101077.31
2023-03-26T19:09:56.109Z,101080.84
2023-03-26T19:12:27.809Z,101080.09
2023-03-26T19:15:13.965Z,101089.72
2023-03-26T19:17:45.072Z,101084.47
2023-03-26T19:20:19.418Z,101093.94
2023-03-26T19:22:47.579Z,101100.72
2023-03-26T19:25:22.521Z,101099.09
2023-03-26T19:27:50.694Z,101104.97
2023-03-26T19:30:29.769Z,101114.50
2023-03-26T19:33:13.544Z,101111.94
2023-03-26T19:35:42.108Z,101112.09
2023-03-26T19:38:24.752Z,101125.81
2023-03-26T19:40:54.834Z,101127.75
2023-03-26T19:43:22.406Z,101133.22
2023-03-26T19:46:00.266Z,101145.47
2023-03-26T19:48:46.175Z,101147.34
2023-03-26T19:51:20.253Z,101149.03
2023-03-26T19:53:53.088Z,101159.41
2023-03-26T19:56:20.754Z,101162.06
2023-03-26T19:58:48.560Z,101157.00
2023-03-26T20:01:27.173Z,101164.84
2023-03-26T20:04:00.971Z,101170.94
2023-03-26T20:06:42.452Z,101169.25
2023-03-26T20:09:11.300Z,101168.41
2023-03-26T20:11:39.679Z,101176.97
2023-03-26T20:14:19.811Z,101180.34
2023-03-26T20:16:46.502Z,101191.63
2023-03-26T20:19:14.510Z,101191.63
2023-03-26T20:21:41.808Z,101193.41
2023-03-26T20:24:17.033Z,101198.41
2023-03-26T20:26:44.535Z,101201.00
2023-03-26T20:29:11.687Z,101209.69
2023-03-26T20:31:39.691Z,101206.28
2023-03-26T20:34:19.703Z,101212.19
2023-03-26T20:36:47.008Z,101214.84
2023-03-26T20:39:14.176Z,101226.94
2023-03-26T20:41:45.407Z,101226.16
2023-03-26T20:44:15.432Z,101230.41
2023-03-26T20:46:43.148Z,101235.69
2023-03-26T20:49:10.784Z,101241.78
2023-03-26T20:51:41.949Z,101247.78
2023-03-26T20:54:21.425Z,101261.59
2023-03-26T20:56:48.859Z,101265.94
2023-03-26T20:59:21.958Z,101271.91
2023-03-26T21:01:50.063Z,101271.97
2023-03-26T21:04:17.127Z,101274.69
2023-03-26T21:06:43.929Z,101275.59
2023-03-26T21:09:17.505Z,101278.97
2023-03-26T21:12:01.447Z,101278.09
2023-03-26T21:14:32.831Z,101278.19
2023-03-26T21:17:00.315Z,101284.22
2023-03-26T21:19:27.261Z,101286.78
2023-03-26T21:22:25.713Z,101292.78
2023-03-26T21:25:11.686Z,101295.47
2023-03-26T21:27:44.152Z,101294.72
2023-03-26T21:30:16.742Z,101299.91
2023-03-26T21:32:45.288Z,101299.19
2023-03-26T21:35:13.497Z,101307.03
2023-03-26T21:37:42.983Z,101302.81
2023-03-26T21:40:14.835Z,101308.81
2023-03-26T21:42:51.800Z,101309.72
2023-03-26T21:45:19.380Z,101320.19
2023-03-26T21:47:46.524Z,101326.31
2023-03-26T21:50:16.402Z,101332.38
2023-03-26T21:52:49.413Z,101348.69
2023-03-26T21:55:17.802Z,101341.78
2023-03-26T21:58:00.694Z,101356.34
2023-03-26T22:00:43.302Z,101358.97
2023-03-26T22:03:34.940Z,101361.47
2023-03-26T22:06:13.594Z,101368.34
2023-03-26T22:08:41.446Z,101369.19
2023-03-26T22:11:10.132Z,101381.19
2023-03-26T22:13:38.580Z,101379.44
2023-03-26T22:16:07.131Z,101376.03
2023-03-26T22:18:34.367Z,101384.69
2023-03-26T22:21:00.977Z,101382.88
2023-03-26T22:23:34.052Z,101389.84
2023-03-26T22:26:00.567Z,101397.59
2023-03-26T22:28:27.134Z,101401.81
2023-03-26T22:30:53.682Z,101403.56
2023-03-26T22:33:20.291Z,101399.22
2023-03-26T22:35:47.401Z,101406.03
2023-03-26T22:38:13.899Z,101404.22
2023-03-26T22:40:40.345Z,101414.44
2023-03-26T22:43:07.258Z,101416.28
2023-03-26T22:45:33.624Z,101425.84
2023-03-26T22:48:04.055Z,101418.97
2023-03-26T22:50:31.048Z,101423.28
2023-03-26T22:52:57.503Z,101432.88
2023-03-26T22:55:27.957Z,101437.22
2023-03-26T22:57:55.717Z,101440.66
2023-03-26T23:00:22.248Z,101442.47
2023-03-26T23:02:48.694Z,101444.97
2023-03-26T23:05:18.599Z,101448.44
2023-03-26T23:07:46.033Z,101458.78
2023-03-26T23:10:13.321Z,101460.53
2023-03-26T23:12:40.026Z,101467.38
2023-03-26T23:15:07.194Z,101469.94
2023-03-26T23:17:38.199Z,101469.91
2023-03-26T23:20:14.869Z,101469.84
2023-03-26T23:22:42.652Z,101478.38
2023-03-26T23:25:10.176Z,101486.16
2023-03-26T23:27:37.211Z,101483.66
2023-03-26T23:30:04.795Z,101487.16
2023-03-26T23:32:31.367Z,101492.34
2023-03-26T23:34:57.927Z,101495.00
2023-03-26T23:37:24.386Z,101502.75
2023-03-26T23:39:51.421Z,101510.41
2023-03-26T23:42:28.892Z,101515.56
2023-03-26T23:44:56.632Z,101519.88
2023-03-26T23:47:23.137Z,101522.53
2023-03-26T23:49:49.784Z,101522.53
2023-03-26T23:52:16.182Z,101532.13
2023-03-26T23:54:42.595Z,101532.97
2023-03-26T23:57:09.200Z,101534.69
2023-03-26T23:59:35.974Z,101540.69
